Time;durP1;ratioP1;P1;durP2;ratioP2;P2;SDS_P1;SDS_P2;PMS_P1;PMS_P2;Temp;Humidity;BMP_temperature;BMP_pressure;BME280_temperature;BME280_humidity;BME280_pressure;Samples;Min_cycle;Max_cycle;Signal;HPM_P1;HPM_P2
2022/12/12 00:00:18;;;;;;;31.30;12.60;;;;;;;-1.71;100.00;100166.56;5010272;28;20045;-84
2022/12/12 00:02:45;;;;;;;29.10;12.63;;;;;;;-1.72;100.00;100164.84;4979374;28;20042;-83
2022/12/12 00:05:17;;;;;;;31.33;13.47;;;;;;;-1.73;100.00;100160.50;4996012;28;20042;-84
2022/12/12 00:07:44;;;;;;;29.83;12.87;;;;;;;-1.72;100.00;100164.84;4995257;28;20053;-83
2022/12/12 00:10:11;;;;;;;35.77;12.90;;;;;;;-1.67;100.00;100169.25;5003781;28;20131;-84
2022/12/12 00:12:37;;;;;;;32.37;14.00;;;;;;;-1.67;100.00;100161.47;5007135;28;20048;-83
2022/12/12 00:15:05;;;;;;;30.33;12.07;;;;;;;-1.66;100.00;100160.63;5013289;28;20037;-83
2022/12/12 00:17:34;;;;;;;32.27;14.40;;;;;;;-1.63;100.00;100155.50;5019224;28;20052;-84
2022/12/12 00:20:05;;;;;;;29.40;13.30;;;;;;;-1.57;100.00;100158.22;4996528;28;20388;-84
2022/12/12 00:22:32;;;;;;;30.67;13.53;;;;;;;-1.59;100.00;100157.34;4995151;28;20041;-84
2022/12/12 00:24:59;;;;;;;26.97;12.17;;;;;;;-1.58;100.00;100152.19;4999766;28;20040;-83
2022/12/12 00:27:26;;;;;;;31.10;12.93;;;;;;;-1.56;100.00;100154.78;4991921;28;20048;-83
2022/12/12 00:29:53;;;;;;;28.70;14.23;;;;;;;-1.53;100.00;100155.72;4977568;28;20053;-84
2022/12/12 00:32:20;;;;;;;33.87;13.23;;;;;;;-1.68;100.00;100167.47;4998295;28;20077;-84
2022/12/12 00:34:47;;;;;;;36.33;15.07;;;;;;;-1.66;100.00;100169.28;4982984;28;20041;-84
2022/12/12 00:37:13;;;;;;;36.70;15.37;;;;;;;-1.71;100.00;100169.16;4993725;28;20037;-84
2022/12/12 00:39:42;;;;;;;34.27;14.37;;;;;;;-1.62;100.00;100159.84;5014613;28;20484;-83
2022/12/12 00:42:09;;;;;;;31.57;14.10;;;;;;;-1.65;100.00;100157.19;5003966;28;20037;-83
2022/12/12 00:44:38;;;;;;;34.63;13.30;;;;;;;-1.61;100.00;100161.59;5012755;28;20111;-84
2022/12/12 00:47:05;;;;;;;35.80;14.20;;;;;;;-1.64;100.00;100158.94;4975031;28;20044;-84
2022/12/12 00:49:32;;;;;;;28.13;13.23;;;;;;;-1.61;100.00;100166.75;4992415;28;20049;-84
2022/12/12 00:51:59;;;;;;;31.90;13.70;;;;;;;-1.56;100.00;100158.25;4994200;28;20494;-84
2022/12/12 00:54:26;;;;;;;29.83;13.40;;;;;;;-1.53;100.00;100168.66;5000984;28;20044;-84
2022/12/12 00:56:52;;;;;;;31.57;12.73;;;;;;;-1.52;100.00;100166.94;4982908;28;20046;-84
2022/12/12 00:59:19;;;;;;;32.33;13.53;;;;;;;-1.52;100.00;100165.22;5000551;28;20049;-84
2022/12/12 01:01:47;;;;;;;32.53;13.73;;;;;;;-1.50;100.00;100166.16;4979152;28;20483;-85
2022/12/12 01:04:13;;;;;;;30.10;13.23;;;;;;;-1.46;100.00;100164.50;5000351;28;20040;-85
2022/12/12 01:06:40;;;;;;;30.80;12.33;;;;;;;-1.47;100.00;100158.44;4977113;28;20439;-85
2022/12/12 01:09:07;;;;;;;33.50;15.73;;;;;;;-1.44;100.00;100161.06;5000737;28;20053;-85
2022/12/12 01:11:33;;;;;;;30.87;13.37;;;;;;;-1.45;100.00;100164.50;5001732;28;20041;-85
2022/12/12 01:14:00;;;;;;;32.73;13.03;;;;;;;-1.39;100.00;100168.94;5006016;28;20037;-85
2022/12/12 01:16:28;;;;;;;29.00;11.97;;;;;;;-1.37;100.00;100158.63;5002989;28;20060;-86
2022/12/12 01:18:55;;;;;;;31.67;12.97;;;;;;;-1.37;100.00;100156.03;4989897;28;20052;-85
2022/12/12 01:21:22;;;;;;;32.80;13.67;;;;;;;-1.38;100.00;100162.94;4977719;28;20045;-85
2022/12/12 01:23:49;;;;;;;36.87;13.40;;;;;;;-1.34;100.00;100172.53;4978295;28;20805;-85
2022/12/12 01:26:20;;;;;;;29.27;12.83;;;;;;;-1.33;100.00;100166.50;4996445;28;20045;-86
2022/12/12 01:28:47;;;;;;;29.70;12.37;;;;;;;-1.34;100.00;100167.34;4981305;28;20046;-85
2022/12/12 01:31:14;;;;;;;25.73;11.53;;;;;;;-1.37;100.00;100168.97;4980274;28;20037;-85
2022/12/12 01:33:44;;;;;;;26.33;13.03;;;;;;;-1.34;100.00;100172.53;5013452;28;20065;-84
2022/12/12 01:36:17;;;;;;;27.20;12.17;;;;;;;-1.33;100.00;100169.09;4980389;28;20049;-84
2022/12/12 01:38:49;;;;;;;34.60;13.10;;;;;;;-1.34;100.00;100169.94;4997315;28;20095;-85
2022/12/12 01:41:16;;;;;;;31.70;12.90;;;;;;;-1.36;100.00;100170.72;5010178;28;20534;-84
2022/12/12 01:43:44;;;;;;;26.77;12.10;;;;;;;-1.34;100.00;100163.88;4982533;28;20495;-81
2022/12/12 01:46:34;;;;;;;28.50;13.33;;;;;;;-1.27;100.00;100164.00;5001164;28;20112;-81
2022/12/12 01:49:06;;;;;;;30.70;11.73;;;;;;;-1.32;100.00;100160.47;5009467;28;20084;-81
2022/12/12 01:51:33;;;;;;;31.50;13.90;;;;;;;-1.35;100.00;100164.69;5031375;28;20045;-83
2022/12/12 01:54:13;;;;;;;26.37;11.80;;;;;;;-1.21;100.00;100169.31;5016531;28;20053;-81
2022/12/12 01:56:42;;;;;;;27.20;11.47;;;;;;;-1.35;100.00;100172.47;4982622;28;20037;-81
2022/12/12 01:59:11;;;;;;;28.50;12.73;;;;;;;-1.37;100.00;100166.38;4997784;28;20052;-83
2022/12/12 02:01:38;;;;;;;27.43;12.00;;;;;;;-1.29;100.00;100170.00;4984945;28;20045;-82
2022/12/12 02:04:06;;;;;;;30.43;12.07;;;;;;;-1.34;100.00;100167.34;4981787;23;20054;-85
2022/12/12 02:06:33;;;;;;;28.50;12.10;;;;;;;-1.38;100.00;100175.88;4943429;28;20415;-85
2022/12/12 02:09:04;;;;;;;26.03;10.73;;;;;;;-1.41;100.00;100170.66;4965391;28;20038;-85
2022/12/12 02:11:32;;;;;;;27.37;11.70;;;;;;;-1.41;100.00;100173.25;4952437;28;20066;-85
2022/12/12 02:13:59;;;;;;;29.07;12.43;;;;;;;-1.37;100.00;100169.84;4958646;28;20492;-84
2022/12/12 02:16:28;;;;;;;28.90;12.20;;;;;;;-1.41;100.00;100173.25;4940011;28;20043;-85
2022/12/12 02:19:32;;;;;;;24.73;11.03;;;;;;;-1.45;100.00;100164.50;4955678;28;20038;-86
2022/12/12 02:22:03;;;;;;;24.37;10.87;;;;;;;-1.39;100.00;100173.25;4950679;28;20043;-85
2022/12/12 02:24:38;;;;;;;27.00;11.77;;;;;;;-1.37;100.00;100176.75;4962116;28;20550;-86
2022/12/12 02:27:42;;;;;;;25.90;11.00;;;;;;;-1.36;100.00;100174.19;4969466;28;20050;-85
2022/12/12 02:30:42;;;;;;;25.20;11.17;;;;;;;-1.38;100.00;100173.28;4954448;28;20058;-85
2022/12/12 02:33:20;;;;;;;20.90;10.63;;;;;;;-1.35;100.00;100169.88;4954963;28;20566;-85
2022/12/12 02:35:58;;;;;;;24.57;9.97;;;;;;;-1.36;100.00;100175.91;4969068;28;20423;-85
2022/12/12 02:38:34;;;;;;;23.67;11.17;;;;;;;-1.26;100.00;100176.13;4983684;28;20053;-84
2022/12/12 02:41:26;;;;;;;27.43;10.33;;;;;;;-1.10;100.00;100177.28;4983842;28;20047;-84
2022/12/12 02:44:40;;;;;;;23.13;10.63;;;;;;;-1.14;100.00;100178.94;4959567;28;20385;-84
2022/12/12 02:47:26;;;;;;;23.60;9.68;;;;;;;-1.10;100.00;100181.59;4926329;29;20131;-84
2022/12/12 02:50:02;;;;;;;23.03;10.27;;;;;;;-1.20;100.00;100178.81;4959029;28;20061;-84
2022/12/12 02:52:30;;;;;;;24.93;11.00;;;;;;;-1.10;100.00;100190.22;4941531;28;20051;-85
2022/12/12 02:54:57;;;;;;;23.03;10.83;;;;;;;-1.13;100.00;100190.19;4972936;28;20708;-85
2022/12/12 02:57:24;;;;;;;24.60;11.30;;;;;;;-1.08;100.00;100182.50;4962237;28;20094;-84
2022/12/12 02:59:57;;;;;;;25.17;9.87;;;;;;;-1.09;100.00;100183.34;4954667;28;20043;-84
2022/12/12 03:02:50;;;;;;;23.47;10.73;;;;;;;-1.06;100.00;100186.88;4976736;28;20897;-84
2022/12/12 03:08:51;;;;;;;25.27;9.23;;;;;;;-1.14;100.00;100184.13;4982420;28;20035;-85
2022/12/12 03:11:51;;;;;;;23.30;8.50;;;;;;;-1.11;100.00;100179.84;4979530;28;20046;-84
2022/12/12 03:14:44;;;;;;;20.40;9.67;;;;;;;-1.17;100.00;100185.81;4970377;28;20035;-85
2022/12/12 03:17:31;;;;;;;17.60;8.93;;;;;;;-1.09;100.00;100180.75;4938327;28;20069;-85
2022/12/12 03:20:07;;;;;;;20.63;8.87;;;;;;;-0.96;100.00;100180.13;4957373;28;20054;-84
2022/12/12 03:22:50;;;;;;;21.47;9.30;;;;;;;-1.05;100.00;100175.66;4951880;28;20105;-84
2022/12/12 03:25:40;;;;;;;16.35;8.57;;;;;;;-1.00;100.00;100186.13;4941179;28;20035;-85
2022/12/12 03:28:17;;;;;;;19.70;9.77;;;;;;;-1.05;100.00;100169.59;4935188;28;20045;-83
2022/12/12 03:30:47;;;;;;;18.17;8.10;;;;;;;-1.04;100.00;100164.44;4953238;28;20070;-84
2022/12/12 03:33:24;;;;;;;17.53;7.57;;;;;;;-1.11;100.00;100167.75;4957070;28;20066;-85
2022/12/12 03:35:58;;;;;;;19.43;8.77;;;;;;;-1.04;100.00;100171.34;4958379;28;20097;-84
2022/12/12 03:38:30;;;;;;;;;;;;;;;-0.93;100.00;100168.09;4973596;28;20042;-84
2022/12/12 03:40:59;;;;;;;16.77;7.50;;;;;;;-0.94;100.00;100163.75;4981133;28;20379;-85
2022/12/12 03:43:27;;;;;;;16.00;7.17;;;;;;;-1.09;100.00;100165.19;4950153;28;20051;-83
2022/12/12 03:46:20;;;;;;;10.57;4.93;;;;;;;-1.13;100.00;100165.13;4948428;28;20050;-84
2022/12/12 03:48:50;;;;;;;13.90;5.90;;;;;;;-1.13;100.00;100167.72;4955035;28;20416;-84
2022/12/12 03:51:22;;;;;;;10.70;5.27;;;;;;;-1.08;100.00;100170.41;4970191;28;20089;-84
2022/12/12 03:53:58;;;;;;;9.20;4.90;;;;;;;-0.93;100.00;100177.59;4956269;28;20487;-84
2022/12/12 03:56:44;;;;;;;9.40;4.90;;;;;;;-0.94;100.00;100176.72;4954033;28;20042;-83
2022/12/12 03:59:15;;;;;;;8.83;4.83;;;;;;;-0.85;100.00;100168.22;4977386;28;20050;-84
2022/12/12 04:01:50;;;;;;;9.57;5.33;;;;;;;-0.90;100.00;100172.47;4950820;28;20165;-85
2022/12/12 04:04:34;;;;;;;11.00;4.70;;;;;;;-0.99;100.00;100177.50;4936980;28;20411;-84
2022/12/12 04:07:09;;;;;;;8.00;4.43;;;;;;;-0.85;100.00;100178.59;4965218;28;20098;-84
2022/12/12 04:15:38;;;;;;;9.43;5.13;;;;;;;-0.85;100.00;100178.59;4933272;28;20413;-84
2022/12/12 04:18:31;;;;;;;9.70;5.43;;;;;;;-0.97;100.00;100179.25;4959663;28;20050;-86
2022/12/12 04:23:58;;;;;;;9.70;5.50;;;;;;;-1.04;100.00;100176.53;4966368;28;20447;-85
2022/12/12 04:26:41;;;;;;;8.47;4.83;;;;;;;-0.96;100.00;100183.59;4970557;28;20044;-85
2022/12/12 04:29:32;;;;;;;8.63;4.67;;;;;;;-0.93;100.00;100175.84;4971886;28;20499;-85
2022/12/12 04:32:20;;;;;;;7.17;4.53;;;;;;;-0.95;100.00;100182.75;4968897;28;20180;-85
2022/12/12 04:34:55;;;;;;;7.73;5.03;;;;;;;-1.09;100.00;100178.16;4965745;28;20492;-84
2022/12/12 04:37:29;;;;;;;10.63;5.20;;;;;;;-0.95;100.00;100179.28;4951464;29;20101;-85
2022/12/12 04:39:58;;;;;;;10.60;4.82;;;;;;;-0.92;100.00;100182.81;4972020;28;20034;-84
2022/12/12 04:42:31;;;;;;;7.80;4.47;;;;;;;-0.84;100.00;100182.97;4955828;28;20603;-85
2022/12/12 04:45:18;;;;;;;8.97;5.27;;;;;;;-0.88;100.00;100183.75;4971658;28;20038;-85
2022/12/12 04:47:47;;;;;;;9.97;4.27;;;;;;;-0.88;100.00;100175.97;4954573;28;20042;-80
2022/12/12 04:50:15;;;;;;;7.90;4.27;;;;;;;-0.79;100.00;100177.84;4957609;28;20609;-80
2022/12/12 04:52:42;;;;;;;7.20;3.90;;;;;;;-0.80;100.00;100176.09;4942517;28;20500;-81
2022/12/12 04:55:18;;;;;;;6.53;3.80;;;;;;;-0.83;100.00;100176.06;4955510;28;20086;-80
2022/12/12 04:57:48;;;;;;;8.13;3.83;;;;;;;-0.89;100.00;100184.59;4971600;28;20519;-80
2022/12/12 05:00:16;;;;;;;7.87;4.50;;;;;;;-0.88;100.00;100182.00;4937237;28;20058;-81
2022/12/12 05:02:56;;;;;;;7.10;4.17;;;;;;;-0.91;100.00;100178.50;4946910;28;20042;-81
2022/12/12 05:05:57;;;;;;;8.23;3.87;;;;;;;-0.83;100.00;100179.53;4957063;28;20488;-80
2022/12/12 05:08:34;;;;;;;7.37;4.37;;;;;;;-0.79;100.00;100178.72;4956420;28;20108;-81
2022/12/12 05:11:02;;;;;;;7.20;4.10;;;;;;;-0.79;100.00;100189.09;4946907;28;20042;-80
2022/12/12 05:13:32;;;;;;;6.67;3.90;;;;;;;-0.89;100.00;100193.25;4974262;28;20045;-80
2022/12/12 05:16:01;;;;;;;6.37;3.73;;;;;;;-0.78;100.00;100193.41;4957077;28;20046;-80
2022/12/12 05:18:29;;;;;;;8.10;4.10;;;;;;;-0.82;100.00;100191.63;4940799;28;20149;-80
2022/12/12 05:20:56;;;;;;;6.43;4.03;;;;;;;-0.81;100.00;100195.09;4973601;28;20042;-81
2022/12/12 05:23:22;;;;;;;7.43;4.63;;;;;;;-0.73;100.00;100191.78;4974085;28;20039;-80
2022/12/12 05:25:49;;;;;;;9.50;4.73;;;;;;;-0.73;100.00;100190.91;4975131;28;20105;-80
2022/12/12 05:28:15;;;;;;;9.70;5.20;;;;;;;-0.81;100.00;100195.97;4976935;28;20105;-80
2022/12/12 05:30:42;;;;;;;8.20;4.57;;;;;;;-0.79;100.00;100194.28;4965382;28;20046;-80
2022/12/12 05:33:09;;;;;;;8.37;4.57;;;;;;;-0.89;100.00;100192.38;4972912;28;20053;-80
2022/12/12 05:35:35;;;;;;;8.47;4.70;;;;;;;-0.76;100.00;100203.81;4972831;28;20039;-79
2022/12/12 05:38:02;;;;;;;7.73;4.60;;;;;;;-0.98;100.00;100203.44;4957627;28;20069;-80
2022/12/12 05:40:29;;;;;;;9.00;4.60;;;;;;;-0.92;100.00;100200.09;4973712;28;20110;-80
2022/12/12 05:42:55;;;;;;;9.67;4.63;;;;;;;-0.99;100.00;100199.09;4973225;28;20101;-80
2022/12/12 05:45:22;;;;;;;9.67;5.23;;;;;;;-1.04;100.00;100197.25;4962536;28;20065;-80
2022/12/12 05:47:49;;;;;;;8.27;4.30;;;;;;;-0.84;100.00;100206.31;4976956;28;20041;-80
2022/12/12 05:50:15;;;;;;;7.97;4.83;;;;;;;-0.99;100.00;100203.41;4981751;28;20043;-81
2022/12/12 05:52:42;;;;;;;8.07;4.57;;;;;;;-0.93;100.00;100212.16;4980786;28;20439;-80
2022/12/12 05:55:09;;;;;;;9.50;4.27;;;;;;;-0.99;100.00;100206.00;4961387;28;20046;-79
2022/12/12 05:57:36;;;;;;;10.40;4.70;;;;;;;-1.05;100.00;100205.88;4977520;28;20058;-80
2022/12/12 06:00:04;;;;;;;9.30;5.00;;;;;;;-1.05;100.00;100216.25;4974941;28;20035;-80
2022/12/12 06:02:30;;;;;;;11.27;7.13;;;;;;;-1.08;100.00;100216.22;4954761;28;20054;-79
2022/12/12 06:04:57;;;;;;;8.77;5.07;;;;;;;-1.06;100.00;100220.56;4956012;28;20679;-80
2022/12/12 06:07:24;;;;;;;10.37;5.87;;;;;;;-0.98;100.00;100220.72;4973345;28;20327;-80
2022/12/12 06:09:50;;;;;;;9.97;5.17;;;;;;;-0.99;100.00;100221.56;4956909;28;20045;-80
2022/12/12 06:12:17;;;;;;;7.83;4.87;;;;;;;-1.04;100.00;100224.06;4960849;28;20062;-80
2022/12/12 06:14:44;;;;;;;8.90;5.00;;;;;;;-0.90;100.00;100226.94;4969749;28;20035;-81
2022/12/12 06:17:10;;;;;;;9.67;5.10;;;;;;;-0.91;100.00;100222.59;4952932;28;20809;-81
2022/12/12 06:19:37;;;;;;;10.37;5.47;;;;;;;-0.98;100.00;100224.19;4972148;28;20043;-80
2022/12/12 06:22:04;;;;;;;7.70;5.43;;;;;;;-1.06;100.00;100224.88;4965418;28;20552;-80
2022/12/12 06:24:30;;;;;;;7.90;4.50;;;;;;;-1.09;100.00;100224.81;4974861;28;20133;-82
2022/12/12 06:26:57;;;;;;;9.40;4.93;;;;;;;-1.04;100.00;100238.75;4951955;28;20035;-83
2022/12/12 06:29:24;;;;;;;8.77;5.00;;;;;;;-1.06;100.00;100236.13;4970879;28;20043;-80
2022/12/12 06:31:50;;;;;;;10.63;5.10;;;;;;;-1.18;100.00;100231.59;4949014;28;20066;-83
2022/12/12 06:34:17;;;;;;;10.27;5.73;;;;;;;-1.08;100.00;100235.22;4967868;28;20157;-80
2022/12/12 06:36:44;;;;;;;9.50;5.90;;;;;;;-1.19;100.00;100236.72;4948797;28;20047;-80
2022/12/12 06:39:11;;;;;;;8.83;5.30;;;;;;;-1.17;100.00;100242.81;4971719;28;20038;-83
2022/12/12 06:41:38;;;;;;;8.43;5.10;;;;;;;-1.39;100.00;100241.50;4958485;28;20062;-80
2022/12/12 06:44:05;;;;;;;8.73;4.80;;;;;;;-1.30;100.00;100240.81;4972191;28;20043;-81
2022/12/12 06:46:32;;;;;;;7.73;4.40;;;;;;;-1.25;100.00;100236.63;4955177;28;20038;-82
2022/12/12 06:48:59;;;;;;;9.37;5.60;;;;;;;-1.18;100.00;100247.13;4978508;28;20043;-83
2022/12/12 06:51:28;;;;;;;9.60;5.80;;;;;;;-1.11;100.00;100242.06;4961243;23;20044;-82
2022/12/12 06:53:55;;;;;;;8.83;5.03;;;;;;;-1.29;100.00;100251.22;4969947;28;20039;-82
2022/12/12 06:56:23;;;;;;;7.80;4.27;;;;;;;-1.34;100.00;100239.91;4921654;29;20067;-82
2022/12/12 06:58:50;;;;;;;7.93;5.47;;;;;;;-1.13;100.00;100235.13;4935389;29;20489;-83
2022/12/12 07:01:18;;;;;;;8.70;4.30;;;;;;;-1.28;100.00;100239.13;4934740;29;20051;-81
2022/12/12 07:03:46;;;;;;;7.80;4.63;;;;;;;-1.26;100.00;100245.22;4951653;28;20469;-82
2022/12/12 07:06:13;;;;;;;7.43;4.50;;;;;;;-1.26;100.00;100243.53;4951520;28;20044;-81
2022/12/12 07:08:40;;;;;;;10.97;4.93;;;;;;;-1.30;100.00;100244.28;4917352;29;20035;-82
2022/12/12 07:11:10;;;;;;;7.93;4.30;;;;;;;-1.25;100.00;100245.25;4939582;29;20138;-81
2022/12/12 07:13:37;;;;;;;8.73;4.40;;;;;;;-1.20;100.00;100247.94;4941158;29;20048;-81
2022/12/12 07:16:05;;;;;;;9.20;4.40;;;;;;;-1.21;100.00;100249.66;4935809;29;20703;-82
2022/12/12 07:18:32;;;;;;;7.60;4.63;;;;;;;-1.27;100.00;100256.41;4929422;29;20050;-82
2022/12/12 07:21:03;;;;;;;8.97;4.50;;;;;;;-1.17;100.00;100258.38;4944613;28;20035;-82
2022/12/12 07:23:30;;;;;;;10.03;4.67;;;;;;;-1.34;100.00;100262.34;4929696;28;20130;-82
2022/12/12 07:25:57;;;;;;;8.23;4.67;;;;;;;-1.62;100.00;100266.03;4929389;29;20047;-83
2022/12/12 07:28:23;;;;;;;8.70;4.80;;;;;;;-1.65;100.00;100265.97;4921511;29;20465;-82
2022/12/12 07:30:50;;;;;;;7.30;4.43;;;;;;;-1.59;100.00;100267.00;4939318;29;20045;-82
2022/12/12 07:33:17;;;;;;;7.80;4.30;;;;;;;-1.78;100.00;100273.44;4920899;29;20079;-82
2022/12/12 07:35:44;;;;;;;6.73;4.40;;;;;;;-1.54;100.00;100277.44;4930492;29;20052;-81
2022/12/12 07:38:11;;;;;;;7.07;4.57;;;;;;;-1.53;100.00;100274.88;4918061;29;20051;-83
2022/12/12 07:40:38;;;;;;;6.63;4.27;;;;;;;-1.44;100.00;100277.66;4938188;29;20515;-82
2022/12/12 07:43:04;;;;;;;7.43;4.50;;;;;;;-1.68;100.00;100273.66;4932236;29;20636;-83
2022/12/12 07:45:31;;;;;;;7.30;4.10;;;;;;;-1.54;100.00;100274.84;4953801;29;20118;-83
2022/12/12 07:47:58;;;;;;;7.47;4.00;;;;;;;-1.48;100.00;100281.03;4938579;29;20063;-82
2022/12/12 07:50:24;;;;;;;6.87;4.33;;;;;;;-1.49;100.00;100275.84;4937749;29;20083;-83
2022/12/12 07:52:51;;;;;;;7.30;4.07;;;;;;;-1.55;100.00;100279.16;4958127;28;20039;-82
2022/12/12 07:55:18;;;;;;;7.40;4.00;;;;;;;-1.66;100.00;100277.19;4937286;29;20048;-83
2022/12/12 07:57:45;;;;;;;8.40;4.40;;;;;;;-1.67;100.00;100285.78;4952362;28;20046;-82
2022/12/12 08:00:12;;;;;;;6.23;3.93;;;;;;;-1.79;100.00;100289.84;4920946;29;20470;-83
2022/12/12 08:02:39;;;;;;;8.07;3.97;;;;;;;-1.77;100.00;100287.28;4923176;29;20055;-83
2022/12/12 08:05:06;;;;;;;6.63;3.80;;;;;;;-1.94;100.00;100299.81;4964972;28;20062;-83
2022/12/12 08:07:33;;;;;;;6.17;3.60;;;;;;;-1.88;100.00;100305.16;4956879;28;20040;-82
2022/12/12 08:09:59;;;;;;;6.67;4.00;;;;;;;-1.74;100.00;100302.91;4931728;29;20058;-82
2022/12/12 08:12:30;;;;;;;7.90;4.30;;;;;;;-1.78;100.00;100301.94;4956257;29;20460;-82
2022/12/12 08:14:57;;;;;;;9.00;4.67;;;;;;;-1.79;100.00;100309.69;4933567;29;20039;-82
2022/12/12 08:17:23;;;;;;;8.13;4.17;;;;;;;-1.78;100.00;100312.28;4951452;28;20078;-86
2022/12/12 08:19:50;;;;;;;7.97;4.00;;;;;;;-1.84;100.00;100309.59;4920838;29;20043;-82
2022/12/12 08:22:17;;;;;;;10.37;5.00;;;;;;;-1.90;100.00;100306.84;4916814;29;20462;-83
2022/12/12 08:24:44;;;;;;;6.87;4.10;;;;;;;-1.83;100.00;100307.88;4935976;29;20043;-83
2022/12/12 08:27:10;;;;;;;8.60;4.47;;;;;;;-1.94;100.00;100317.06;4918504;29;20044;-84
2022/12/12 08:29:42;;;;;;;7.30;4.43;;;;;;;-1.70;100.00;100315.94;4939927;29;20493;-83
2022/12/12 08:32:08;;;;;;;7.77;4.20;;;;;;;-1.89;100.00;100313.75;4955809;28;20051;-83
2022/12/12 08:34:35;;;;;;;6.77;3.97;;;;;;;-1.92;100.00;100328.38;4908785;29;20044;-82
2022/12/12 08:37:02;;;;;;;8.50;4.37;;;;;;;-1.86;100.00;100319.00;4925829;29;20478;-84
2022/12/12 08:39:28;;;;;;;9.47;4.80;;;;;;;-1.83;100.00;100320.81;4945041;29;20071;-83
2022/12/12 08:41:55;;;;;;;6.77;4.20;;;;;;;-1.71;100.00;100328.84;4905667;29;20159;-82
2022/12/12 08:44:22;;;;;;;8.30;4.50;;;;;;;-1.83;100.00;100332.03;4918797;29;20118;-81
2022/12/12 08:46:49;;;;;;;6.97;3.70;;;;;;;-1.80;100.00;100334.69;4919605;29;20068;-83
2022/12/12 08:49:16;;;;;;;6.60;3.93;;;;;;;-1.76;100.00;100340.84;4936004;29;20456;-83
2022/12/12 08:51:43;;;;;;;7.23;3.97;;;;;;;-1.78;100.00;100342.50;4935866;29;20532;-83
2022/12/12 08:54:11;;;;;;;6.13;3.70;;;;;;;-1.88;100.00;100343.13;4924825;29;20048;-81
2022/12/12 08:56:39;;;;;;;7.47;4.10;;;;;;;-1.90;100.00;100348.25;4928829;29;20064;-81
2022/12/12 08:59:05;;;;;;;8.47;4.47;;;;;;;-1.91;100.00;100343.06;4958409;29;20501;-81
2022/12/12 09:01:32;;;;;;;6.97;3.93;;;;;;;-2.10;100.00;100355.53;4940802;29;20047;-82
2022/12/12 09:03:59;;;;;;;7.97;3.90;;;;;;;-1.94;100.00;100349.00;4938922;29;20064;-84
2022/12/12 09:06:25;;;;;;;8.47;3.67;;;;;;;-2.02;100.00;100350.53;4958030;28;20059;-82
2022/12/12 09:08:54;;;;;;;7.13;4.60;;;;;;;-2.02;100.00;100348.84;4960373;28;20135;-81
2022/12/12 09:11:20;;;;;;;7.33;4.13;;;;;;;-1.87;100.00;100347.44;4943031;29;20939;-81
2022/12/12 09:13:47;;;;;;;5.53;3.33;;;;;;;-1.78;100.00;100353.72;4926661;29;20043;-83
2022/12/12 09:16:14;;;;;;;5.97;3.27;;;;;;;-1.71;100.00;100347.88;4926517;29;20032;-82
2022/12/12 09:18:41;;;;;;;7.87;3.47;;;;;;;-1.86;100.00;100359.56;4941037;29;20051;-84
2022/12/12 09:21:15;;;;;;;6.82;3.60;;;;;;;-1.65;100.00;100354.91;4923498;29;20106;-81
2022/12/12 09:23:41;;;;;;;7.30;4.03;;;;;;;-1.60;100.00;100361.06;4941767;29;20070;-82
2022/12/12 09:26:09;;;;;;;6.73;4.27;;;;;;;-1.51;100.00;100366.47;4926235;29;20382;-82
2022/12/12 09:28:36;;;;;;;6.90;4.07;;;;;;;-1.66;100.00;100373.00;4942899;29;20075;-81
2022/12/12 09:31:07;;;;;;;7.97;4.10;;;;;;;-1.52;100.00;100364.69;4938624;29;20059;-80
2022/12/12 09:33:34;;;;;;;6.50;3.90;;;;;;;-1.45;100.00;100373.50;4942155;29;20058;-81
2022/12/12 09:36:03;;;;;;;8.53;3.93;;;;;;;-1.49;100.00;100375.16;4942481;29;20417;-82
2022/12/12 09:38:30;;;;;;;6.10;3.43;;;;;;;-1.50;100.00;100375.13;4927539;29;20062;-82
2022/12/12 09:41:01;;;;;;;6.13;4.10;;;;;;;-1.47;100.00;100364.81;4907696;29;20051;-81
2022/12/12 09:43:35;;;;;;;5.70;3.53;;;;;;;-1.46;100.00;100371.75;4942552;29;20043;-84
2022/12/12 09:46:02;;;;;;;6.10;4.00;;;;;;;-1.49;100.00;100350.97;4931665;29;20044;-82
2022/12/12 09:48:40;;;;;;;6.80;3.63;;;;;;;-1.61;100.00;100361.03;4959944;29;20043;-82
2022/12/12 09:51:07;;;;;;;5.67;3.53;;;;;;;-1.47;100.00;100368.28;4946654;29;20536;-82
2022/12/12 09:53:34;;;;;;;6.60;4.03;;;;;;;-1.29;100.00;100369.53;4913086;29;20047;-83
2022/12/12 09:56:23;;;;;;;6.00;3.90;;;;;;;-1.26;100.00;100361.84;4954260;28;20059;-82
2022/12/12 09:59:05;;;;;;;5.30;3.70;;;;;;;-1.42;100.00;100358.91;4924742;29;20645;-82
2022/12/12 10:02:02;;;;;;;6.43;3.80;;;;;;;-1.46;100.00;100364.84;4924862;29;20063;-82
2022/12/12 10:04:45;;;;;;;7.23;3.60;;;;;;;-1.22;100.00;100359.34;4943996;29;20040;-81
2022/12/12 10:07:25;;;;;;;6.07;3.63;;;;;;;-1.08;100.00;100363.97;4937234;29;20059;-83
2022/12/12 10:10:01;;;;;;;5.70;3.80;;;;;;;-1.30;100.00;100353.13;4924471;29;20058;-81
2022/12/12 10:12:29;;;;;;;6.43;3.60;;;;;;;-1.19;100.00;100353.34;4953762;28;20047;-81
2022/12/12 10:15:04;;;;;;;6.83;3.90;;;;;;;-1.03;100.00;100355.44;4932669;29;20060;-82
2022/12/12 10:17:34;;;;;;;5.13;3.33;;;;;;;-0.82;100.00;100356.75;4941856;29;20048;-83
2022/12/12 10:20:05;;;;;;;6.07;4.00;;;;;;;-0.94;100.00;100354.75;4957741;29;20077;-82
2022/12/12 10:22:36;;;;;;;6.47;3.57;;;;;;;-0.70;100.00;100364.75;4929334;29;20091;-81
2022/12/12 10:25:19;;;;;;;6.17;3.57;;;;;;;-0.72;100.00;100356.94;4937958;29;20047;-84
2022/12/12 10:27:49;;;;;;;6.90;4.10;;;;;;;-0.58;100.00;100355.50;4953044;28;20063;-83
2022/12/12 10:30:18;;;;;;;8.33;4.53;;;;;;;-0.65;100.00;100358.84;4912455;29;20039;-83
2022/12/12 10:33:07;;;;;;;6.33;4.17;;;;;;;-0.69;100.00;100362.19;4962242;29;20043;-83
2022/12/12 10:35:55;;;;;;;7.23;3.93;;;;;;;-0.55;100.00;100356.41;4943366;29;20068;-83
2022/12/12 10:38:47;;;;;;;7.53;4.43;;;;;;;-0.45;100.00;100354.00;4947275;29;20047;-82
2022/12/12 10:41:22;;;;;;;8.10;4.00;;;;;;;-0.48;100.00;100360.88;4968216;28;20055;-82
2022/12/12 10:44:01;;;;;;;5.93;3.70;;;;;;;-0.41;100.00;100357.56;4925959;29;20054;-83
2022/12/12 10:46:30;;;;;;;5.77;3.70;;;;;;;-0.46;100.00;100365.25;4932441;29;20519;-84
2022/12/12 10:48:57;;;;;;;6.80;3.97;;;;;;;-0.67;100.00;100364.84;4967574;28;20069;-82
2022/12/12 10:51:26;;;;;;;7.53;4.00;;;;;;;-0.51;100.00;100363.41;4911084;29;20072;-84
2022/12/12 10:53:53;;;;;;;7.73;4.60;;;;;;;-0.55;100.00;100364.19;4927428;29;20043;-82
2022/12/12 10:56:25;;;;;;;7.63;3.77;;;;;;;-0.73;100.00;100369.91;4923629;29;20040;-85
2022/12/12 10:59:01;;;;;;;5.83;4.13;;;;;;;-0.84;100.00;100367.09;4941937;29;20044;-83
2022/12/12 11:01:37;;;;;;;18.80;9.83;;;;;;;-0.65;100.00;100363.16;4955205;28;20043;-82
2022/12/12 11:04:24;;;;;;;4.87;3.67;;;;;;;-0.65;100.00;100358.84;4947193;28;20051;-82
2022/12/12 11:06:52;;;;;;;20.27;10.83;;;;;;;-0.68;100.00;100366.53;4907907;29;20048;-81
2022/12/12 11:09:24;;;;;;;12.70;8.20;;;;;;;-0.75;100.00;100366.41;4906108;29;20051;-80
2022/12/12 11:12:03;;;;;;;7.57;4.37;;;;;;;-0.78;100.00;100368.91;4945918;29;20087;-82
2022/12/12 11:14:37;;;;;;;4.97;3.50;;;;;;;-0.96;100.00;100365.09;4939897;29;20078;-80
2022/12/12 11:17:20;;;;;;;55.30;28.73;;;;;;;-1.25;100.00;100366.19;4900461;29;20564;-80
2022/12/12 11:19:48;;;;;;;8.07;5.20;;;;;;;-1.07;100.00;100356.22;4934507;29;20043;-86
2022/12/12 11:22:14;;;;;;;11.30;7.50;;;;;;;-1.02;100.00;100353.72;4931139;29;20413;-83
2022/12/12 11:24:44;;;;;;;15.93;13.13;;;;;;;-1.13;100.00;100367.31;4934066;29;20047;-83
2022/12/12 11:27:28;;;;;;;8.93;7.20;;;;;;;-0.99;100.00;100364.16;4934314;28;20046;-83
2022/12/12 11:29:57;;;;;;;12.17;10.33;;;;;;;-1.11;100.00;100364.75;4915551;29;20143;-83
2022/12/12 11:32:28;;;;;;;8.93;6.90;;;;;;;-0.94;100.00;100365.13;4943034;29;20047;-83
2022/12/12 11:34:57;;;;;;;7.03;4.37;;;;;;;-1.02;100.00;100361.50;4918092;29;20576;-84
2022/12/12 11:37:29;;;;;;;6.70;4.40;;;;;;;-1.07;100.00;100365.72;4935027;29;20094;-82
2022/12/12 11:39:56;;;;;;;7.47;5.00;;;;;;;-1.56;100.00;100362.03;4903502;29;20052;-82
2022/12/12 11:42:28;;;;;;;9.27;8.17;;;;;;;-1.52;100.00;100366.41;4935023;29;20067;-81